createdAt,value
2018-12-07T00:00:22.622Z,31.09
2018-12-07T00:01:22.619Z,31.37
2018-12-07T00:02:22.615Z,31.56
2018-12-07T00:03:22.616Z,31.76
2018-12-07T00:04:22.607Z,32.15
2018-12-07T00:05:22.602Z,32.44
2018-12-07T00:06:22.598Z,32.71
2018-12-07T00:07:22.593Z,33.37
2018-12-07T00:08:22.591Z,33.37
2018-12-07T00:09:22.587Z,33.66
2018-12-07T00:10:22.583Z,33.76
2018-12-07T00:11:22.577Z,34.14
2018-12-07T00:12:22.575Z,34.05
2018-12-07T00:13:22.571Z,34.71
2018-12-07T00:14:22.566Z,34.42
2018-12-07T00:15:22.561Z,34.90
2018-12-07T00:16:22.558Z,34.90
2018-12-07T00:17:22.554Z,34.71
2018-12-07T00:18:22.549Z,34.71
2018-12-07T00:19:22.544Z,33.85
2018-12-07T00:20:22.541Z,33.76
2018-12-07T00:21:22.538Z,33.57
2018-12-07T00:22:22.533Z,34.23
2018-12-07T00:23:22.528Z,34.61
2018-12-07T00:24:22.525Z,34.90
2018-12-07T00:25:22.531Z,34.90
2018-12-07T00:26:22.516Z,34.81
2018-12-07T00:27:22.514Z,34.61
2018-12-07T00:28:22.509Z,34.42
2018-12-07T00:29:22.583Z,34.42
2018-12-07T00:30:22.501Z,34.52
2018-12-07T00:31:22.500Z,33.76
2018-12-07T00:32:22.492Z,33.85
2018-12-07T00:33:22.488Z,33.85
2018-12-07T00:34:22.485Z,33.66
2018-12-07T00:35:22.484Z,33.57
2018-12-07T00:36:22.477Z,33.37
2018-12-07T00:37:22.472Z,33.18
2018-12-07T00:38:22.467Z,33.00
2018-12-07T00:39:22.465Z,32.90
2018-12-07T00:40:22.461Z,32.71
2018-12-07T00:41:22.457Z,32.71
2018-12-07T00:42:22.452Z,32.52
2018-12-07T00:43:22.448Z,32.52
2018-12-07T00:44:22.445Z,32.32
2018-12-07T00:45:22.439Z,32.23
2018-12-07T00:46:22.437Z,32.32
2018-12-07T00:47:22.434Z,31.85
2018-12-07T00:48:22.429Z,31.95
2018-12-07T00:49:22.428Z,31.76
2018-12-07T00:50:22.422Z,31.95
2018-12-07T00:51:22.415Z,31.76
2018-12-07T00:52:22.422Z,31.76
2018-12-07T00:53:22.408Z,31.66
2018-12-07T00:54:22.403Z,31.37
2018-12-07T00:55:22.399Z,31.76
2018-12-07T00:56:22.395Z,31.66
2018-12-07T00:57:22.391Z,31.37
2018-12-07T00:58:22.387Z,31.09
2018-12-07T00:59:22.382Z,31.28
2018-12-07T01:00:22.380Z,30.90
2018-12-07T01:01:22.375Z,30.90
2018-12-07T01:02:22.370Z,31.09
2018-12-07T01:03:22.365Z,30.71
2018-12-07T01:04:22.363Z,30.52
2018-12-07T01:05:22.359Z,30.32
2018-12-07T01:06:22.357Z,30.42
2018-12-07T01:07:22.354Z,30.52
2018-12-07T01:08:22.347Z,29.56
2018-12-07T01:09:22.342Z,30.32
2018-12-07T01:10:22.336Z,30.13
2018-12-07T01:11:22.334Z,29.85
2018-12-07T01:12:22.330Z,29.85
2018-12-07T01:13:22.575Z,29.27
2018-12-07T01:14:22.321Z,29.27
2018-12-07T01:15:22.316Z,29.56
2018-12-07T01:16:22.311Z,29.47
2018-12-07T01:17:22.308Z,29.37
2018-12-07T01:18:22.304Z,29.47
2018-12-07T01:19:22.302Z,29.66
2018-12-07T01:20:22.296Z,29.56
2018-12-07T01:21:22.293Z,29.47
2018-12-07T01:22:22.287Z,29.27
2018-12-07T01:23:22.282Z,29.27
2018-12-07T01:24:22.279Z,29.27
2018-12-07T01:25:22.275Z,29.37
2018-12-07T01:26:22.270Z,29.27
2018-12-07T01:27:22.266Z,28.99
2018-12-07T01:28:22.262Z,28.89
2018-12-07T01:29:22.258Z,29.18
2018-12-07T01:30:22.253Z,28.99
2018-12-07T01:31:22.249Z,28.89
2018-12-07T01:32:22.252Z,28.89
2018-12-07T01:33:22.242Z,28.99
2018-12-07T01:34:22.238Z,28.89
2018-12-07T01:35:22.238Z,28.99
2018-12-07T01:36:22.227Z,28.99
2018-12-07T01:37:22.224Z,28.80
2018-12-07T01:38:22.219Z,28.80
2018-12-07T01:39:22.214Z,28.89
2018-12-07T01:40:22.214Z,28.89
2018-12-07T01:41:22.207Z,28.89
2018-12-07T01:42:22.203Z,28.89
2018-12-07T01:43:22.282Z,28.99
2018-12-07T01:44:22.194Z,28.99
2018-12-07T01:45:22.190Z,28.89
2018-12-07T01:46:22.187Z,29.08
2018-12-07T01:47:22.182Z,28.99
2018-12-07T01:48:22.178Z,28.89
2018-12-07T01:49:22.174Z,29.27
2018-12-07T01:50:22.168Z,29.08
2018-12-07T01:51:22.163Z,29.18
2018-12-07T01:52:22.160Z,29.08
2018-12-07T01:53:22.156Z,29.27
2018-12-07T01:54:22.152Z,29.18
2018-12-07T01:55:22.147Z,29.18
2018-12-07T01:56:22.143Z,29.37
2018-12-07T01:57:22.139Z,29.37
2018-12-07T01:58:22.133Z,29.47
2018-12-07T01:59:22.131Z,29.37
2018-12-07T02:00:22.131Z,29.56
2018-12-07T02:01:22.121Z,29.56
2018-12-07T02:02:22.117Z,29.18
2018-12-07T02:03:22.112Z,29.56
2018-12-07T02:04:22.107Z,29.75
2018-12-07T02:05:22.104Z,29.56
2018-12-07T02:06:22.098Z,29.66
2018-12-07T02:07:22.098Z,29.94
2018-12-07T02:08:22.094Z,29.94
2018-12-07T02:09:22.087Z,29.94
2018-12-07T02:10:22.081Z,30.04
2018-12-07T02:11:22.077Z,30.32
2018-12-07T02:12:22.079Z,30.13
2018-12-07T02:13:22.072Z,30.52
2018-12-07T02:14:22.066Z,30.71
2018-12-07T02:15:22.059Z,30.52
2018-12-07T02:16:22.065Z,30.13
2018-12-07T02:17:22.051Z,30.23
2018-12-07T02:18:22.047Z,30.71
2018-12-07T02:19:22.043Z,30.42
2018-12-07T02:20:22.107Z,31.09
2018-12-07T02:21:22.036Z,30.80
2018-12-07T02:22:22.030Z,30.52
2018-12-07T02:23:22.088Z,30.99
2018-12-07T02:24:22.054Z,30.71
2018-12-07T02:25:22.018Z,31.18
2018-12-07T02:26:22.014Z,31.28
2018-12-07T02:27:22.011Z,31.28
2018-12-07T02:28:22.005Z,31.47
2018-12-07T02:29:21.999Z,31.66
2018-12-07T02:30:21.996Z,31.66
2018-12-07T02:31:21.995Z,31.66
2018-12-07T02:32:21.987Z,31.85
2018-12-07T02:33:21.983Z,31.76
2018-12-07T02:34:21.978Z,32.04
2018-12-07T02:35:21.978Z,32.14
2018-12-07T02:36:21.969Z,32.23
2018-12-07T02:37:21.967Z,32.61
2018-12-07T02:38:21.961Z,32.52
2018-12-07T02:39:21.957Z,32.61
2018-12-07T02:40:21.953Z,33.00
2018-12-07T02:41:21.948Z,32.90
2018-12-07T02:42:21.943Z,33.37
2018-12-07T02:43:21.939Z,33.28
2018-12-07T02:44:21.977Z,33.57
2018-12-07T02:45:21.931Z,33.37
2018-12-07T02:46:21.972Z,33.57
2018-12-07T02:47:21.965Z,33.66
2018-12-07T02:48:21.916Z,33.85
2018-12-07T02:49:21.914Z,33.76
2018-12-07T02:50:21.908Z,33.28
2018-12-07T02:51:21.904Z,33.95
2018-12-07T02:52:21.899Z,34.05
2018-12-07T02:53:21.920Z,34.05
2018-12-07T02:54:21.891Z,34.23
2018-12-07T02:55:21.887Z,33.85
2018-12-07T02:56:21.883Z,33.85
2018-12-07T02:57:21.878Z,34.23
2018-12-07T02:58:21.873Z,34.52
2018-12-07T02:59:21.869Z,34.52
2018-12-07T03:00:21.865Z,34.52
2018-12-07T03:01:21.860Z,34.14
2018-12-07T03:02:21.855Z,33.95
2018-12-07T03:03:21.851Z,34.61
2018-12-07T03:04:21.849Z,34.52
2018-12-07T03:05:21.843Z,34.52
2018-12-07T03:06:21.839Z,34.33
2018-12-07T03:07:21.834Z,34.33
2018-12-07T03:08:21.831Z,34.33
2018-12-07T03:09:21.826Z,34.33
2018-12-07T03:10:21.820Z,34.33
2018-12-07T03:11:21.817Z,34.52
2018-12-07T03:12:21.813Z,34.61
2018-12-07T03:13:21.808Z,34.05
2018-12-07T03:14:21.809Z,34.61
2018-12-07T03:15:21.799Z,34.42
2018-12-07T03:16:21.794Z,34.61
2018-12-07T03:17:21.808Z,34.42
2018-12-07T03:18:21.786Z,34.52
2018-12-07T03:19:21.782Z,34.42
2018-12-07T03:20:21.778Z,34.52
2018-12-07T03:21:21.873Z,34.61
2018-12-07T03:22:21.769Z,34.61
2018-12-07T03:23:21.764Z,34.61
2018-12-07T03:24:21.760Z,34.61
2018-12-07T03:25:21.757Z,34.52
2018-12-07T03:26:21.752Z,34.52
2018-12-07T03:27:21.747Z,34.52
2018-12-07T03:28:21.743Z,33.95
2018-12-07T03:29:21.738Z,34.61
2018-12-07T03:30:21.734Z,34.33
2018-12-07T03:31:21.731Z,34.52
2018-12-07T03:32:21.725Z,34.71
2018-12-07T03:33:21.735Z,34.42
2018-12-07T03:34:21.721Z,34.61
2018-12-07T03:35:21.719Z,34.52
2018-12-07T03:36:21.805Z,34.52
2018-12-07T03:37:21.706Z,34.42
2018-12-07T03:38:21.699Z,34.52
2018-12-07T03:39:21.698Z,34.61
2018-12-07T03:40:21.690Z,34.81
2018-12-07T03:41:21.686Z,34.71
2018-12-07T03:42:21.680Z,34.71
2018-12-07T03:43:21.689Z,34.90
2018-12-07T03:44:21.673Z,34.81
2018-12-07T03:45:21.668Z,34.52
2018-12-07T03:46:21.667Z,34.81
2018-12-07T03:47:21.659Z,35.10
2018-12-07T03:48:21.656Z,35.00
2018-12-07T03:49:21.652Z,34.90
2018-12-07T03:50:21.645Z,35.00
2018-12-07T03:51:21.640Z,35.00
2018-12-07T03:52:21.638Z,34.90
2018-12-07T03:53:21.633Z,35.00
2018-12-07T03:54:21.628Z,34.90
2018-12-07T03:55:21.639Z,35.10
2018-12-07T03:56:21.620Z,34.90
2018-12-07T03:57:21.616Z,35.19
2018-12-07T03:58:21.610Z,35.10
2018-12-07T03:59:21.605Z,35.10
2018-12-07T04:00:21.602Z,35.00
2018-12-07T04:01:21.615Z,35.00
2018-12-07T04:02:21.592Z,35.19
2018-12-07T04:03:21.598Z,35.28
2018-12-07T04:04:21.584Z,35.28
2018-12-07T04:05:21.580Z,35.19
2018-12-07T04:06:21.575Z,35.47
2018-12-07T04:07:21.570Z,35.10
2018-12-07T04:08:21.568Z,35.66
2018-12-07T04:09:21.563Z,35.57
2018-12-07T04:10:21.557Z,35.86
2018-12-07T04:11:21.555Z,35.66
2018-12-07T04:12:21.549Z,35.66
2018-12-07T04:13:21.550Z,35.47
2018-12-07T04:14:21.541Z,35.57
2018-12-07T04:15:21.538Z,35.38
2018-12-07T04:16:21.534Z,35.57
2018-12-07T04:17:21.528Z,35.76
2018-12-07T04:18:21.522Z,35.76
2018-12-07T04:19:21.518Z,36.05
2018-12-07T04:20:21.514Z,36.14
2018-12-07T04:21:21.510Z,36.24
2018-12-07T04:22:21.508Z,36.43
2018-12-07T04:23:21.505Z,36.62
2018-12-07T04:24:21.497Z,36.71
2018-12-07T04:25:21.492Z,36.90
2018-12-07T04:26:21.488Z,37.00
2018-12-07T04:27:21.489Z,36.62
2018-12-07T04:28:21.479Z,37.00
2018-12-07T04:29:21.483Z,37.00
2018-12-07T04:30:21.470Z,37.29
2018-12-07T04:31:21.467Z,37.19
2018-12-07T04:32:21.463Z,37.38
2018-12-07T04:33:21.460Z,37.19
2018-12-07T04:34:21.453Z,37.29
2018-12-07T04:35:21.448Z,37.76
2018-12-07T04:36:21.448Z,37.66
2018-12-07T04:37:21.440Z,37.66
2018-12-07T04:38:21.436Z,37.66
2018-12-07T04:39:21.431Z,37.38
2018-12-07T04:40:21.428Z,38.05
2018-12-07T04:41:21.425Z,37.95
2018-12-07T04:42:21.417Z,37.76
2018-12-07T04:43:21.414Z,38.05
2018-12-07T04:44:21.414Z,37.86
2018-12-07T04:45:21.408Z,38.05
2018-12-07T04:46:21.400Z,38.24
2018-12-07T04:47:21.401Z,38.24
2018-12-07T04:48:21.393Z,38.34
2018-12-07T04:49:21.389Z,38.34
2018-12-07T04:50:21.388Z,38.81
2018-12-07T04:51:21.379Z,38.71
2018-12-07T04:52:21.377Z,38.81
2018-12-07T04:53:21.371Z,39.10
2018-12-07T04:54:21.366Z,39.19
2018-12-07T04:55:21.362Z,39.00
2018-12-07T04:56:21.357Z,39.10
2018-12-07T04:57:21.355Z,39.58
2018-12-07T04:58:21.349Z,39.67
2018-12-07T04:59:21.345Z,39.67
2018-12-07T05:00:21.341Z,39.76
2018-12-07T05:01:21.335Z,39.58
2018-12-07T05:02:21.330Z,39.95
2018-12-07T05:03:21.326Z,39.86
2018-12-07T05:04:21.322Z,40.24
2018-12-07T05:05:21.319Z,40.15
2018-12-07T05:06:21.315Z,40.05
2018-12-07T05:07:21.316Z,40.81
2018-12-07T05:08:21.305Z,39.67
2018-12-07T05:09:21.304Z,40.44
2018-12-07T05:10:21.299Z,40.05
2018-12-07T05:11:21.291Z,40.05
2018-12-07T05:12:21.289Z,39.86
2018-12-07T05:13:21.285Z,40.34
2018-12-07T05:14:21.280Z,40.63
2018-12-07T05:15:21.276Z,40.53
2018-12-07T05:16:21.278Z,41.10
2018-12-07T05:17:21.268Z,41.10
2018-12-07T05:18:21.261Z,41.00
2018-12-07T05:19:21.260Z,40.72
2018-12-07T05:20:21.255Z,41.20
2018-12-07T05:21:21.263Z,41.20
2018-12-07T05:22:21.244Z,40.72
2018-12-07T05:23:21.241Z,41.10
2018-12-07T05:24:21.237Z,41.58
2018-12-07T05:25:21.233Z,41.77
2018-12-07T05:26:21.234Z,41.86
2018-12-07T05:27:21.227Z,42.05
2018-12-07T05:28:21.221Z,41.96
2018-12-07T05:29:21.216Z,42.53
2018-12-07T05:30:21.212Z,42.44
2018-12-07T05:31:21.209Z,42.15
2018-12-07T05:32:21.203Z,42.24
2018-12-07T05:33:21.200Z,42.82
2018-12-07T05:34:21.194Z,42.63
2018-12-07T05:35:21.190Z,42.53
2018-12-07T05:36:21.189Z,42.53
2018-12-07T05:37:21.181Z,42.44
2018-12-07T05:38:21.180Z,42.24
2018-12-07T05:39:21.173Z,42.53
2018-12-07T05:40:21.169Z,42.63
2018-12-07T05:41:21.165Z,42.44
2018-12-07T05:42:21.158Z,42.44
2018-12-07T05:43:21.157Z,42.63
2018-12-07T05:44:21.154Z,42.53
2018-12-07T05:45:21.146Z,42.53
2018-12-07T05:46:21.145Z,42.63
2018-12-07T05:47:21.138Z,42.91
2018-12-07T05:48:23.773Z,42.72
2018-12-07T05:49:21.130Z,43.10
2018-12-07T05:50:21.124Z,43.20
2018-12-07T05:51:21.119Z,43.49
2018-12-07T05:52:21.115Z,44.34
2018-12-07T05:53:21.111Z,44.06
2018-12-07T05:54:21.110Z,43.87
2018-12-07T05:55:21.102Z,43.96
2018-12-07T05:56:21.099Z,44.44
2018-12-07T05:57:21.094Z,44.44
2018-12-07T05:58:21.090Z,44.63
2018-12-07T05:59:21.084Z,44.92
2018-12-07T06:00:21.081Z,44.82
2018-12-07T06:01:21.080Z,45.29
2018-12-07T06:02:21.072Z,45.39
2018-12-07T06:03:21.068Z,45.78
2018-12-07T06:04:21.064Z,45.87
2018-12-07T06:05:21.059Z,45.97
2018-12-07T06:06:21.055Z,46.15
2018-12-07T06:07:21.050Z,46.06
2018-12-07T06:08:21.045Z,46.06
2018-12-07T06:09:21.042Z,46.34
2018-12-07T06:10:21.035Z,46.25
2018-12-07T06:11:21.033Z,46.44
2018-12-07T06:12:21.029Z,46.34
2018-12-07T06:13:21.024Z,46.44
2018-12-07T06:14:21.020Z,46.44
2018-12-07T06:15:21.015Z,47.30
2018-12-07T06:16:21.012Z,47.02
2018-12-07T06:17:21.008Z,46.73
2018-12-07T06:18:21.002Z,46.63
2018-12-07T06:19:20.998Z,46.73
2018-12-07T06:20:20.993Z,47.11
2018-12-07T06:21:20.988Z,47.11
2018-12-07T06:22:20.983Z,47.02
2018-12-07T06:23:20.980Z,47.97
2018-12-07T06:24:20.976Z,47.68
2018-12-07T06:25:20.971Z,47.97
2018-12-07T06:26:20.967Z,47.58
2018-12-07T06:27:20.962Z,47.68
2018-12-07T06:28:20.957Z,48.25
2018-12-07T06:29:20.956Z,48.07
2018-12-07T06:30:20.950Z,48.07
2018-12-07T06:31:20.945Z,48.16
2018-12-07T06:32:20.942Z,48.25
2018-12-07T06:33:20.939Z,48.44
2018-12-07T06:34:20.932Z,48.25
2018-12-07T06:35:20.928Z,48.35
2018-12-07T06:36:20.923Z,48.63
2018-12-07T06:37:20.923Z,48.35
2018-12-07T06:38:20.917Z,48.44
2018-12-07T06:39:20.912Z,49.02
2018-12-07T06:40:20.907Z,48.83
2018-12-07T06:41:20.902Z,48.73
2018-12-07T06:42:20.896Z,48.73
2018-12-07T06:43:20.894Z,49.02
2018-12-07T06:44:20.890Z,49.49
2018-12-07T06:45:20.883Z,49.40
2018-12-07T06:46:20.878Z,49.40
2018-12-07T06:47:20.875Z,49.40
2018-12-07T06:48:20.872Z,49.40
2018-12-07T06:49:20.866Z,49.40
2018-12-07T06:50:20.861Z,49.30
2018-12-07T06:51:20.858Z,49.40
2018-12-07T06:52:20.853Z,49.02
2018-12-07T06:53:20.848Z,49.11
2018-12-07T06:54:20.844Z,49.21
2018-12-07T06:55:20.841Z,49.11
2018-12-07T06:56:20.836Z,49.11
2018-12-07T06:57:20.832Z,49.30
2018-12-07T06:58:20.828Z,49.30
2018-12-07T06:59:20.823Z,49.49
2018-12-07T07:00:20.818Z,49.49
2018-12-07T07:01:20.815Z,49.49
2018-12-07T07:02:20.810Z,49.40
2018-12-07T07:03:20.810Z,49.49
2018-12-07T07:04:20.801Z,49.68
2018-12-07T07:05:20.797Z,49.59
2018-12-07T07:06:20.793Z,49.59
2018-12-07T07:07:20.789Z,49.68
2018-12-07T07:08:20.784Z,49.87
2018-12-07T07:09:20.779Z,49.97
2018-12-07T07:10:20.774Z,50.26
2018-12-07T07:11:20.770Z,50.07
2018-12-07T07:12:20.767Z,50.26
2018-12-07T07:13:20.763Z,50.54
2018-12-07T07:14:20.757Z,50.35
2018-12-07T07:15:20.754Z,50.35
2018-12-07T07:16:23.279Z,50.35
2018-12-07T07:17:20.744Z,50.26
2018-12-07T07:18:21.388Z,50.45
2018-12-07T07:19:20.736Z,50.45
2018-12-07T07:20:20.731Z,50.16
2018-12-07T07:21:20.727Z,50.26
2018-12-07T07:22:20.725Z,50.16
2018-12-07T07:23:20.718Z,50.35
2018-12-07T07:24:20.715Z,50.16
2018-12-07T07:25:20.713Z,50.16
2018-12-07T07:26:20.705Z,50.07
2018-12-07T07:27:20.701Z,50.26
2018-12-07T07:28:20.695Z,50.45
2018-12-07T07:29:20.693Z,50.54
2018-12-07T07:30:20.688Z,50.54
2018-12-07T07:31:20.682Z,50.73
2018-12-07T07:32:20.679Z,50.73
2018-12-07T07:33:20.687Z,50.45
2018-12-07T07:34:20.670Z,50.54
2018-12-07T07:35:20.666Z,50.63
2018-12-07T07:36:20.662Z,50.54
2018-12-07T07:37:20.656Z,50.92
2018-12-07T07:38:20.652Z,50.92
2018-12-07T07:39:20.654Z,50.45
2018-12-07T07:40:20.643Z,50.83
2018-12-07T07:41:20.640Z,50.63
2018-12-07T07:42:20.634Z,50.35
2018-12-07T07:43:20.630Z,50.83
2018-12-07T07:44:20.627Z,50.63
2018-12-07T07:45:20.622Z,51.02
2018-12-07T07:46:20.618Z,50.54
2018-12-07T07:47:20.613Z,50.45
2018-12-07T07:48:20.610Z,50.35
2018-12-07T07:49:20.606Z,50.63
2018-12-07T07:50:20.600Z,51.02
2018-12-07T07:51:20.596Z,51.12
2018-12-07T07:52:20.591Z,51.12
2018-12-07T07:53:20.588Z,51.21
2018-12-07T07:54:21.174Z,51.40
2018-12-07T07:55:20.581Z,51.40
2018-12-07T07:56:20.575Z,51.68
2018-12-07T07:57:20.570Z,51.50
2018-12-07T07:58:20.565Z,51.78
2018-12-07T07:59:20.560Z,51.68
2018-12-07T08:00:20.558Z,51.78
2018-12-07T08:01:20.552Z,51.31
2018-12-07T08:02:20.547Z,51.59
2018-12-07T08:03:20.545Z,51.40
2018-12-07T08:04:20.540Z,51.12
2018-12-07T08:05:20.536Z,51.31
2018-12-07T08:06:20.531Z,51.68
2018-12-07T08:07:20.528Z,51.88
2018-12-07T08:08:20.522Z,51.78
2018-12-07T08:09:20.518Z,51.78
2018-12-07T08:10:20.516Z,51.59
2018-12-07T08:11:20.508Z,51.50
2018-12-07T08:12:20.505Z,51.02
2018-12-07T08:13:20.500Z,50.92
2018-12-07T08:14:20.495Z,51.02
2018-12-07T08:15:20.495Z,51.02
2018-12-07T08:16:20.488Z,50.92
2018-12-07T08:17:20.484Z,51.12
2018-12-07T08:18:20.478Z,51.02
2018-12-07T08:19:20.475Z,50.92
2018-12-07T08:20:20.469Z,51.68
2018-12-07T08:21:20.465Z,51.31
2018-12-07T08:22:20.461Z,51.21
2018-12-07T08:23:20.456Z,51.68
2018-12-07T08:24:20.454Z,51.97
2018-12-07T08:25:20.450Z,52.36
2018-12-07T08:26:20.444Z,52.26
2018-12-07T08:27:20.440Z,52.36
2018-12-07T08:28:20.436Z,52.26
2018-12-07T08:29:20.431Z,52.26
2018-12-07T08:30:20.425Z,52.83
2018-12-07T08:31:20.421Z,52.83
2018-12-07T08:32:20.419Z,52.83
2018-12-07T08:33:20.413Z,53.50
2018-12-07T08:34:20.408Z,53.41
2018-12-07T08:35:20.404Z,53.41
2018-12-07T08:36:20.399Z,53.50
2018-12-07T08:37:20.396Z,53.50
2018-12-07T08:38:20.391Z,53.31
2018-12-07T08:39:20.387Z,53.12
2018-12-07T08:40:20.382Z,53.41
2018-12-07T08:41:20.378Z,53.50
2018-12-07T08:42:20.373Z,52.73
2018-12-07T08:43:20.371Z,52.86
2018-12-07T08:44:20.365Z,53.24
2018-12-07T08:45:20.361Z,53.53
2018-12-07T08:46:20.356Z,54.64
2018-12-07T08:47:20.352Z,55.41
2018-12-07T08:48:20.347Z,56.17
2018-12-07T08:49:20.430Z,56.36
2018-12-07T08:50:20.338Z,57.50
2018-12-07T08:51:20.349Z,56.93
2018-12-07T08:52:20.330Z,57.41
2018-12-07T08:53:20.327Z,57.60
2018-12-07T08:54:20.321Z,57.60
2018-12-07T08:55:20.317Z,57.70
2018-12-07T08:56:20.312Z,57.50
2018-12-07T08:57:20.310Z,57.60
2018-12-07T08:58:20.304Z,57.22
2018-12-07T08:59:20.301Z,57.50
2018-12-07T09:00:20.296Z,57.22
2018-12-07T09:01:20.292Z,57.60
2018-12-07T09:02:20.286Z,56.93
2018-12-07T09:03:20.281Z,56.93
2018-12-07T09:04:20.279Z,56.46
2018-12-07T09:05:20.277Z,56.26
2018-12-07T09:06:20.267Z,56.55
2018-12-07T09:07:20.265Z,56.26
2018-12-07T09:08:20.260Z,56.55
2018-12-07T09:09:20.259Z,56.55
2018-12-07T09:10:20.250Z,56.46
2018-12-07T09:11:20.248Z,56.65
2018-12-07T09:12:20.243Z,56.26
2018-12-07T09:13:20.241Z,56.17
2018-12-07T09:14:20.235Z,55.69
2018-12-07T09:15:20.230Z,55.60
2018-12-07T09:16:20.227Z,55.79
2018-12-07T09:17:20.222Z,55.79
2018-12-07T09:18:20.216Z,55.88
2018-12-07T09:19:20.213Z,55.98
2018-12-07T09:20:20.209Z,55.88
2018-12-07T09:21:20.206Z,55.88
2018-12-07T09:22:20.201Z,55.79
2018-12-07T09:23:20.196Z,55.88
2018-12-07T09:24:20.192Z,55.79
2018-12-07T09:25:20.186Z,55.98
2018-12-07T09:26:20.183Z,56.55
2018-12-07T09:27:20.177Z,56.07
2018-12-07T09:28:20.174Z,56.26
2018-12-07T09:29:20.171Z,56.36
2018-12-07T09:30:20.168Z,56.55
2018-12-07T09:31:20.158Z,56.74
2018-12-07T09:32:20.156Z,57.03
2018-12-07T09:33:20.153Z,57.41
2018-12-07T09:34:20.146Z,57.70
2018-12-07T09:35:20.141Z,58.07
2018-12-07T09:36:20.140Z,58.07
2018-12-07T09:37:20.133Z,57.89
2018-12-07T09:38:20.130Z,58.55
2018-12-07T09:39:20.125Z,58.46
2018-12-07T09:40:20.120Z,58.75
2018-12-07T09:41:20.116Z,59.41
2018-12-07T09:42:20.110Z,59.70
2018-12-07T09:43:20.107Z,59.70
2018-12-07T09:44:20.105Z,59.99
2018-12-07T09:45:20.099Z,60.65
2018-12-07T09:46:20.094Z,61.32
2018-12-07T09:47:20.089Z,61.99
2018-12-07T09:48:20.085Z,61.60
2018-12-07T09:49:20.087Z,62.18
2018-12-07T09:50:20.082Z,62.56
2018-12-07T09:51:20.074Z,62.65
2018-12-07T09:52:20.070Z,63.60
2018-12-07T09:53:20.064Z,63.70
2018-12-07T09:54:20.058Z,63.32
2018-12-07T09:55:20.054Z,63.42
2018-12-07T09:56:20.051Z,63.99
2018-12-07T09:57:20.047Z,63.80
2018-12-07T09:58:20.042Z,64.85
2018-12-07T09:59:20.037Z,64.75
2018-12-07T10:00:20.034Z,64.75
2018-12-07T10:01:20.030Z,64.94
2018-12-07T10:02:20.025Z,65.04
2018-12-07T10:03:20.021Z,65.13
2018-12-07T10:04:20.017Z,65.13
2018-12-07T10:05:20.016Z,65.04
2018-12-07T10:06:20.006Z,64.85
2018-12-07T10:07:20.005Z,65.23
2018-12-07T10:08:20.000Z,65.23
2018-12-07T10:09:19.998Z,64.85
2018-12-07T10:10:19.991Z,64.94
2018-12-07T10:11:19.986Z,64.56
2018-12-07T10:12:19.984Z,64.85
2018-12-07T10:13:19.979Z,64.56
2018-12-07T10:14:19.974Z,64.37
2018-12-07T10:15:19.969Z,64.56
2018-12-07T10:16:19.964Z,65.13
2018-12-07T10:17:19.964Z,65.42
2018-12-07T10:18:19.957Z,65.52
2018-12-07T10:19:19.953Z,65.61
2018-12-07T10:20:19.950Z,65.61
2018-12-07T10:21:19.945Z,65.61
2018-12-07T10:22:19.941Z,65.99
2018-12-07T10:23:19.935Z,65.61
2018-12-07T10:24:19.934Z,65.99
2018-12-07T10:25:19.929Z,65.80
2018-12-07T10:26:19.924Z,66.47
2018-12-07T10:27:19.922Z,65.89
2018-12-07T10:28:19.919Z,65.70
2018-12-07T10:29:19.911Z,65.99
2018-12-07T10:30:19.908Z,65.89
2018-12-07T10:31:19.902Z,65.61
2018-12-07T10:32:19.899Z,65.89
2018-12-07T10:33:19.895Z,65.70
2018-12-07T10:34:19.889Z,65.52
2018-12-07T10:35:19.884Z,65.80
2018-12-07T10:36:19.881Z,65.61
2018-12-07T10:37:19.878Z,65.61
2018-12-07T10:38:19.873Z,65.99
2018-12-07T10:39:19.868Z,65.52
2018-12-07T10:40:19.870Z,66.09
2018-12-07T10:41:19.859Z,65.61
2018-12-07T10:42:19.856Z,65.70
2018-12-07T10:43:19.851Z,65.52
2018-12-07T10:44:19.846Z,65.33
2018-12-07T10:45:19.843Z,65.42
2018-12-07T10:46:19.839Z,65.33
2018-12-07T10:47:19.837Z,65.23
2018-12-07T10:48:19.830Z,65.23
2018-12-07T10:49:19.825Z,65.61
2018-12-07T10:50:19.821Z,65.61
2018-12-07T10:51:19.817Z,65.70
2018-12-07T10:52:19.813Z,65.80
2018-12-07T10:53:19.809Z,65.99
2018-12-07T10:54:19.804Z,65.61
2018-12-07T10:55:19.800Z,65.80
2018-12-07T10:56:19.797Z,65.99
2018-12-07T10:57:19.792Z,66.66
2018-12-07T10:58:19.787Z,66.47
2018-12-07T10:59:19.782Z,66.47
2018-12-07T11:00:22.826Z,66.66
2018-12-07T11:01:19.779Z,66.28
2018-12-07T11:02:19.771Z,66.66
2018-12-07T11:03:19.765Z,66.56
2018-12-07T11:04:19.762Z,67.14
2018-12-07T11:05:19.758Z,67.04
2018-12-07T11:06:19.754Z,67.14
2018-12-07T11:07:19.748Z,66.56
2018-12-07T11:08:19.747Z,66.56
2018-12-07T11:09:19.741Z,66.85
2018-12-07T11:10:19.735Z,66.66
2018-12-07T11:11:19.731Z,66.75
2018-12-07T11:12:19.731Z,66.38
2018-12-07T11:13:19.723Z,66.28
2018-12-07T11:14:19.720Z,66.28
2018-12-07T11:15:19.717Z,65.89
2018-12-07T11:16:19.712Z,65.13
2018-12-07T11:17:19.707Z,65.70
2018-12-07T11:18:19.702Z,65.23
2018-12-07T11:19:19.699Z,65.42
2018-12-07T11:20:19.695Z,65.13
2018-12-07T11:21:19.690Z,65.23
2018-12-07T11:22:20.112Z,64.47
2018-12-07T11:23:19.681Z,65.23
2018-12-07T11:24:19.677Z,64.56
2018-12-07T11:25:19.674Z,65.04
2018-12-07T11:26:19.669Z,64.85
2018-12-07T11:27:19.666Z,64.18
2018-12-07T11:28:19.661Z,64.56
2018-12-07T11:29:19.657Z,64.78
2018-12-07T11:30:19.652Z,64.94
2018-12-07T11:31:19.648Z,64.56
2018-12-07T11:32:19.643Z,64.78
2018-12-07T11:33:19.643Z,64.18
2018-12-07T11:34:19.636Z,64.37
2018-12-07T11:35:19.631Z,63.51
2018-12-07T11:36:19.627Z,64.56
2018-12-07T11:37:19.624Z,64.12
2018-12-07T11:38:19.619Z,64.21
2018-12-07T11:39:19.615Z,64.18
2018-12-07T11:40:19.611Z,64.37
2018-12-07T11:41:19.607Z,64.47
2018-12-07T11:42:19.602Z,64.28
2018-12-07T11:43:19.597Z,63.60
2018-12-07T11:44:19.593Z,64.28
2018-12-07T11:45:19.589Z,64.40
2018-12-07T11:46:19.586Z,64.28
2018-12-07T11:47:19.582Z,63.26
2018-12-07T11:48:19.576Z,62.84
2018-12-07T11:49:19.575Z,63.51
2018-12-07T11:50:19.568Z,63.60
2018-12-07T11:51:19.565Z,63.92
2018-12-07T11:52:19.560Z,64.21
2018-12-07T11:53:19.556Z,64.78
2018-12-07T11:54:19.553Z,65.55
2018-12-07T11:55:19.549Z,65.26
2018-12-07T11:56:19.544Z,65.17
2018-12-07T11:57:19.542Z,65.83
2018-12-07T11:58:19.534Z,65.26
2018-12-07T11:59:19.532Z,65.64
2018-12-07T12:00:19.527Z,65.45
2018-12-07T12:01:19.524Z,65.26
2018-12-07T12:02:26.170Z,65.74
2018-12-07T12:03:19.514Z,65.26
2018-12-07T12:04:19.510Z,64.78
2018-12-07T12:05:19.508Z,65.26
2018-12-07T12:06:19.532Z,65.45
2018-12-07T12:07:19.500Z,65.17
2018-12-07T12:08:19.496Z,64.78
2018-12-07T12:09:19.490Z,65.17
2018-12-07T12:10:19.486Z,64.97
2018-12-07T12:11:19.483Z,65.45
2018-12-07T12:12:19.479Z,65.64
2018-12-07T12:13:19.474Z,64.97
2018-12-07T12:14:19.472Z,64.97
2018-12-07T12:15:19.465Z,65.07
2018-12-07T12:16:19.464Z,65.64
2018-12-07T12:17:19.459Z,65.55
2018-12-07T12:18:19.455Z,65.45
2018-12-07T12:19:19.450Z,65.55
2018-12-07T12:20:19.447Z,65.36
2018-12-07T12:21:19.441Z,65.26
2018-12-07T12:22:19.441Z,65.36
2018-12-07T12:23:19.462Z,65.83
2018-12-07T12:24:19.431Z,65.64
2018-12-07T12:25:19.426Z,66.12
2018-12-07T12:26:19.422Z,65.26
2018-12-07T12:27:19.419Z,65.26
2018-12-07T12:28:19.414Z,65.83
2018-12-07T12:29:19.410Z,66.78
2018-12-07T12:30:19.407Z,66.69
2018-12-07T12:31:19.402Z,68.22
2018-12-07T12:32:19.399Z,67.74
2018-12-07T12:33:19.393Z,68.60
2018-12-07T12:34:19.391Z,68.03
2018-12-07T12:35:19.387Z,67.65
2018-12-07T12:36:19.386Z,68.03
2018-12-07T12:37:19.380Z,67.74
2018-12-07T12:38:19.420Z,67.27
2018-12-07T12:39:19.373Z,66.88
2018-12-07T12:40:19.367Z,66.78
2018-12-07T12:41:19.363Z,67.83
2018-12-07T12:42:19.361Z,67.74
2018-12-07T12:43:19.355Z,67.74
2018-12-07T12:44:19.353Z,67.55
2018-12-07T12:45:19.349Z,66.98
2018-12-07T12:46:19.342Z,67.68
2018-12-07T12:47:19.342Z,68.54
2018-12-07T12:48:19.336Z,68.51
2018-12-07T12:49:19.333Z,67.36
2018-12-07T12:50:19.328Z,67.58
2018-12-07T12:51:19.325Z,68.70
2018-12-07T12:52:19.321Z,68.32